sensor_id;sensor_type;location;lat;lon;timestamp;P1;durP1;ratioP1;P2;durP2;ratioP2
76935;SDS011;65881;52.438;16.744;2023-08-06T00:08:26;7.03;;;4.95;;
76935;SDS011;65881;52.438;16.744;2023-08-06T00:10:51;6.43;;;5.72;;
76935;SDS011;65881;52.438;16.744;2023-08-06T00:13:17;7.85;;;4.47;;
76935;SDS011;65881;52.438;16.744;2023-08-06T00:15:43;5.85;;;4.53;;
76935;SDS011;65881;52.438;16.744;2023-08-06T00:18:08;9.88;;;5.57;;
76935;SDS011;65881;52.438;16.744;2023-08-06T00:20:34;7.45;;;6.03;;
76935;SDS011;65881;52.438;16.744;2023-08-06T00:23:00;7.88;;;5.65;;
76935;SDS011;65881;52.438;16.744;2023-08-06T00:25:28;8.10;;;5.63;;
76935;SDS011;65881;52.438;16.744;2023-08-06T00:28:31;9.20;;;5.97;;
76935;SDS011;65881;52.438;16.744;2023-08-06T00:30:57;6.28;;;5.45;;
76935;SDS011;65881;52.438;16.744;2023-08-06T00:34:06;9.98;;;6.50;;
76935;SDS011;65881;52.438;16.744;2023-08-06T00:36:35;7.68;;;5.28;;
76935;SDS011;65881;52.438;16.744;2023-08-06T00:42:04;9.05;;;5.80;;
76935;SDS011;65881;52.438;16.744;2023-08-06T00:44:30;7.30;;;6.35;;
76935;SDS011;65881;52.438;16.744;2023-08-06T00:46:55;8.18;;;5.85;;
76935;SDS011;65881;52.438;16.744;2023-08-06T00:49:21;9.88;;;6.55;;
76935;SDS011;65881;52.438;16.744;2023-08-06T00:52:13;10.85;;;6.45;;
76935;SDS011;65881;52.438;16.744;2023-08-06T00:54:45;9.68;;;7.13;;
76935;SDS011;65881;52.438;16.744;2023-08-06T00:57:22;8.80;;;6.97;;
76935;SDS011;65881;52.438;16.744;2023-08-06T01:00:04;9.38;;;6.20;;
76935;SDS011;65881;52.438;16.744;2023-08-06T01:02:52;11.32;;;6.35;;
76935;SDS011;65881;52.438;16.744;2023-08-06T01:05:40;9.43;;;6.95;;
76935;SDS011;65881;52.438;16.744;2023-08-06T01:13:46;7.75;;;6.07;;
76935;SDS011;65881;52.438;16.744;2023-08-06T01:16:18;7.63;;;6.20;;
76935;SDS011;65881;52.438;16.744;2023-08-06T01:18:51;12.07;;;6.50;;
76935;SDS011;65881;52.438;16.744;2023-08-06T01:21:17;9.10;;;5.93;;
76935;SDS011;65881;52.438;16.744;2023-08-06T01:23:43;7.30;;;5.90;;
76935;SDS011;65881;52.438;16.744;2023-08-06T01:31:32;8.18;;;6.72;;
76935;SDS011;65881;52.438;16.744;2023-08-06T01:34:02;9.77;;;6.45;;
76935;SDS011;65881;52.438;16.744;2023-08-06T01:36:31;8.05;;;6.10;;
76935;SDS011;65881;52.438;16.744;2023-08-06T01:38:57;7.72;;;5.85;;
76935;SDS011;65881;52.438;16.744;2023-08-06T01:41:23;10.60;;;6.18;;
76935;SDS011;65881;52.438;16.744;2023-08-06T01:43:48;8.73;;;6.25;;
76935;SDS011;65881;52.438;16.744;2023-08-06T01:46:14;7.30;;;5.93;;
76935;SDS011;65881;52.438;16.744;2023-08-06T01:48:40;8.35;;;6.13;;
76935;SDS011;65881;52.438;16.744;2023-08-06T01:51:05;8.57;;;5.93;;
76935;SDS011;65881;52.438;16.744;2023-08-06T01:53:49;12.00;;;6.05;;
76935;SDS011;65881;52.438;16.744;2023-08-06T01:56:20;7.82;;;5.80;;
76935;SDS011;65881;52.438;16.744;2023-08-06T01:58:57;6.30;;;4.65;;
76935;SDS011;65881;52.438;16.744;2023-08-06T02:01:39;7.65;;;5.72;;
76935;SDS011;65881;52.438;16.744;2023-08-06T02:04:38;8.70;;;5.60;;
76935;SDS011;65881;52.438;16.744;2023-08-06T02:07:06;8.48;;;5.47;;
76935;SDS011;65881;52.438;16.744;2023-08-06T02:12:19;8.18;;;5.85;;
76935;SDS011;65881;52.438;16.744;2023-08-06T02:14:51;7.20;;;5.60;;
76935;SDS011;65881;52.438;16.744;2023-08-06T02:17:23;7.47;;;5.10;;
76935;SDS011;65881;52.438;16.744;2023-08-06T02:19:48;7.70;;;5.53;;
76935;SDS011;65881;52.438;16.744;2023-08-06T02:22:14;7.55;;;5.57;;
76935;SDS011;65881;52.438;16.744;2023-08-06T02:24:40;6.70;;;5.47;;
76935;SDS011;65881;52.438;16.744;2023-08-06T02:27:06;6.50;;;4.60;;
76935;SDS011;65881;52.438;16.744;2023-08-06T02:29:31;6.28;;;5.57;;
76935;SDS011;65881;52.438;16.744;2023-08-06T02:32:12;6.28;;;5.38;;
76935;SDS011;65881;52.438;16.744;2023-08-06T02:34:40;7.28;;;5.32;;
76935;SDS011;65881;52.438;16.744;2023-08-06T02:37:15;8.57;;;5.13;;
76935;SDS011;65881;52.438;16.744;2023-08-06T02:39:40;6.28;;;5.07;;
76935;SDS011;65881;52.438;16.744;2023-08-06T02:42:07;6.70;;;5.35;;
76935;SDS011;65881;52.438;16.744;2023-08-06T02:44:35;5.20;;;4.55;;
76935;SDS011;65881;52.438;16.744;2023-08-06T02:47:01;5.97;;;4.25;;
76935;SDS011;65881;52.438;16.744;2023-08-06T02:49:27;5.53;;;4.10;;
76935;SDS011;65881;52.438;16.744;2023-08-06T02:51:53;6.60;;;4.78;;
76935;SDS011;65881;52.438;16.744;2023-08-06T02:54:18;5.10;;;4.38;;
76935;SDS011;65881;52.438;16.744;2023-08-06T02:56:45;5.82;;;4.40;;
76935;SDS011;65881;52.438;16.744;2023-08-06T02:59:14;6.47;;;5.05;;
76935;SDS011;65881;52.438;16.744;2023-08-06T03:01:39;7.10;;;4.97;;
76935;SDS011;65881;52.438;16.744;2023-08-06T03:04:08;8.65;;;4.85;;
76935;SDS011;65881;52.438;16.744;2023-08-06T03:06:33;7.60;;;4.88;;
76935;SDS011;65881;52.438;16.744;2023-08-06T03:08:59;5.57;;;3.85;;
76935;SDS011;65881;52.438;16.744;2023-08-06T03:11:25;6.72;;;4.60;;
76935;SDS011;65881;52.438;16.744;2023-08-06T03:13:50;5.82;;;3.67;;
76935;SDS011;65881;52.438;16.744;2023-08-06T03:16:16;4.65;;;3.60;;
76935;SDS011;65881;52.438;16.744;2023-08-06T03:18:42;6.35;;;3.88;;
76935;SDS011;65881;52.438;16.744;2023-08-06T03:21:07;5.18;;;4.00;;
76935;SDS011;65881;52.438;16.744;2023-08-06T03:23:42;3.60;;;3.10;;
76935;SDS011;65881;52.438;16.744;2023-08-06T03:26:12;3.55;;;2.90;;
76935;SDS011;65881;52.438;16.744;2023-08-06T03:28:37;3.80;;;3.42;;
76935;SDS011;65881;52.438;16.744;2023-08-06T03:31:03;4.60;;;3.22;;
76935;SDS011;65881;52.438;16.744;2023-08-06T03:33:29;6.57;;;3.67;;
76935;SDS011;65881;52.438;16.744;2023-08-06T03:35:58;4.25;;;2.85;;
76935;SDS011;65881;52.438;16.744;2023-08-06T03:38:24;3.67;;;2.95;;
76935;SDS011;65881;52.438;16.744;2023-08-06T03:40:51;3.60;;;3.10;;
76935;SDS011;65881;52.438;16.744;2023-08-06T03:43:22;4.40;;;3.30;;
76935;SDS011;65881;52.438;16.744;2023-08-06T03:45:48;4.53;;;2.85;;
76935;SDS011;65881;52.438;16.744;2023-08-06T03:48:14;4.20;;;3.78;;
76935;SDS011;65881;52.438;16.744;2023-08-06T03:50:39;5.07;;;2.90;;
76935;SDS011;65881;52.438;16.744;2023-08-06T03:53:15;3.80;;;3.35;;
76935;SDS011;65881;52.438;16.744;2023-08-06T03:55:46;3.30;;;2.72;;
76935;SDS011;65881;52.438;16.744;2023-08-06T03:58:11;6.35;;;3.30;;
76935;SDS011;65881;52.438;16.744;2023-08-06T04:00:37;3.40;;;2.63;;
76935;SDS011;65881;52.438;16.744;2023-08-06T04:03:03;3.70;;;2.58;;
76935;SDS011;65881;52.438;16.744;2023-08-06T04:05:30;3.95;;;2.92;;
76935;SDS011;65881;52.438;16.744;2023-08-06T04:07:57;3.47;;;2.38;;
76935;SDS011;65881;52.438;16.744;2023-08-06T04:10:24;5.72;;;3.08;;
76935;SDS011;65881;52.438;16.744;2023-08-06T04:12:50;9.00;;;3.15;;
76935;SDS011;65881;52.438;16.744;2023-08-06T04:15:16;3.00;;;2.00;;
76935;SDS011;65881;52.438;16.744;2023-08-06T04:17:41;4.22;;;3.30;;
76935;SDS011;65881;52.438;16.744;2023-08-06T04:20:19;3.83;;;2.17;;
76935;SDS011;65881;52.438;16.744;2023-08-06T04:22:44;3.78;;;2.70;;
76935;SDS011;65881;52.438;16.744;2023-08-06T04:25:19;3.40;;;2.80;;
76935;SDS011;65881;52.438;16.744;2023-08-06T04:27:46;3.10;;;2.05;;
76935;SDS011;65881;52.438;16.744;2023-08-06T04:30:15;2.47;;;2.00;;
76935;SDS011;65881;52.438;16.744;2023-08-06T04:33:01;3.13;;;2.42;;
76935;SDS011;65881;52.438;16.744;2023-08-06T04:35:26;2.88;;;2.05;;
76935;SDS011;65881;52.438;16.744;2023-08-06T04:37:52;2.50;;;1.90;;
76935;SDS011;65881;52.438;16.744;2023-08-06T04:40:18;2.75;;;2.08;;
76935;SDS011;65881;52.438;16.744;2023-08-06T04:42:43;2.85;;;1.65;;
76935;SDS011;65881;52.438;16.744;2023-08-06T04:45:09;3.47;;;2.35;;
76935;SDS011;65881;52.438;16.744;2023-08-06T04:47:35;2.92;;;2.10;;
76935;SDS011;65881;52.438;16.744;2023-08-06T04:50:00;2.30;;;1.77;;
76935;SDS011;65881;52.438;16.744;2023-08-06T04:52:26;3.35;;;1.88;;
76935;SDS011;65881;52.438;16.744;2023-08-06T04:54:53;3.40;;;2.33;;
76935;SDS011;65881;52.438;16.744;2023-08-06T04:57:19;2.58;;;1.85;;
76935;SDS011;65881;52.438;16.744;2023-08-06T04:59:45;2.10;;;1.83;;
76935;SDS011;65881;52.438;16.744;2023-08-06T05:02:11;2.50;;;1.90;;
76935;SDS011;65881;52.438;16.744;2023-08-06T05:04:36;7.40;;;2.22;;
76935;SDS011;65881;52.438;16.744;2023-08-06T05:07:02;2.60;;;1.90;;
76935;SDS011;65881;52.438;16.744;2023-08-06T05:09:28;3.42;;;1.83;;
76935;SDS011;65881;52.438;16.744;2023-08-06T05:11:54;2.13;;;1.70;;
76935;SDS011;65881;52.438;16.744;2023-08-06T05:14:20;3.72;;;1.95;;
76935;SDS011;65881;52.438;16.744;2023-08-06T05:16:45;2.60;;;1.92;;
76935;SDS011;65881;52.438;16.744;2023-08-06T05:19:11;3.65;;;2.03;;
76935;SDS011;65881;52.438;16.744;2023-08-06T05:21:37;4.22;;;1.90;;
76935;SDS011;65881;52.438;16.744;2023-08-06T05:24:02;2.17;;;1.90;;
76935;SDS011;65881;52.438;16.744;2023-08-06T05:26:28;3.22;;;2.15;;
76935;SDS011;65881;52.438;16.744;2023-08-06T05:28:54;5.82;;;2.15;;
76935;SDS011;65881;52.438;16.744;2023-08-06T05:31:19;2.33;;;1.88;;
76935;SDS011;65881;52.438;16.744;2023-08-06T05:33:45;3.75;;;2.00;;
76935;SDS011;65881;52.438;16.744;2023-08-06T05:36:41;2.80;;;1.45;;
76935;SDS011;65881;52.438;16.744;2023-08-06T05:39:07;2.60;;;1.75;;
76935;SDS011;65881;52.438;16.744;2023-08-06T05:41:35;4.07;;;1.70;;
76935;SDS011;65881;52.438;16.744;2023-08-06T05:44:02;2.60;;;1.77;;
76935;SDS011;65881;52.438;16.744;2023-08-06T05:46:28;2.45;;;1.80;;
76935;SDS011;65881;52.438;16.744;2023-08-06T05:48:54;2.55;;;2.00;;
76935;SDS011;65881;52.438;16.744;2023-08-06T05:51:22;3.08;;;1.63;;
76935;SDS011;65881;52.438;16.744;2023-08-06T05:53:48;2.63;;;1.73;;
76935;SDS011;65881;52.438;16.744;2023-08-06T05:56:15;2.92;;;1.95;;
76935;SDS011;65881;52.438;16.744;2023-08-06T05:58:44;2.63;;;1.95;;
76935;SDS011;65881;52.438;16.744;2023-08-06T06:01:11;2.17;;;1.73;;
76935;SDS011;65881;52.438;16.744;2023-08-06T06:03:37;3.20;;;2.50;;
76935;SDS011;65881;52.438;16.744;2023-08-06T06:06:02;2.70;;;2.28;;
76935;SDS011;65881;52.438;16.744;2023-08-06T06:08:28;3.30;;;1.85;;
76935;SDS011;65881;52.438;16.744;2023-08-06T06:10:54;2.83;;;2.00;;
76935;SDS011;65881;52.438;16.744;2023-08-06T06:13:19;2.85;;;2.00;;
76935;SDS011;65881;52.438;16.744;2023-08-06T06:15:51;3.92;;;2.88;;
76935;SDS011;65881;52.438;16.744;2023-08-06T06:18:19;3.55;;;2.10;;
76935;SDS011;65881;52.438;16.744;2023-08-06T06:20:48;5.40;;;2.35;;
76935;SDS011;65881;52.438;16.744;2023-08-06T06:23:14;2.50;;;1.92;;
76935;SDS011;65881;52.438;16.744;2023-08-06T06:25:59;2.85;;;1.95;;
76935;SDS011;65881;52.438;16.744;2023-08-06T06:28:25;2.30;;;1.63;;
76935;SDS011;65881;52.438;16.744;2023-08-06T06:30:59;2.22;;;1.60;;
76935;SDS011;65881;52.438;16.744;2023-08-06T06:33:31;2.72;;;1.98;;
76935;SDS011;65881;52.438;16.744;2023-08-06T06:35:57;2.17;;;1.83;;
76935;SDS011;65881;52.438;16.744;2023-08-06T06:38:33;2.15;;;1.92;;
76935;SDS011;65881;52.438;16.744;2023-08-06T06:41:02;2.33;;;1.90;;
76935;SDS011;65881;52.438;16.744;2023-08-06T06:43:28;2.80;;;1.88;;
76935;SDS011;65881;52.438;16.744;2023-08-06T06:46:00;2.55;;;2.03;;
76935;SDS011;65881;52.438;16.744;2023-08-06T06:48:29;2.20;;;1.67;;
76935;SDS011;65881;52.438;16.744;2023-08-06T06:50:57;5.00;;;2.15;;
76935;SDS011;65881;52.438;16.744;2023-08-06T06:53:23;4.30;;;2.13;;
76935;SDS011;65881;52.438;16.744;2023-08-06T06:55:56;5.00;;;1.75;;
76935;SDS011;65881;52.438;16.744;2023-08-06T06:58:26;4.85;;;2.35;;
76935;SDS011;65881;52.438;16.744;2023-08-06T07:00:57;3.00;;;2.15;;
76935;SDS011;65881;52.438;16.744;2023-08-06T07:03:31;3.05;;;1.85;;
76935;SDS011;65881;52.438;16.744;2023-08-06T07:09:01;1.73;;;1.50;;
76935;SDS011;65881;52.438;16.744;2023-08-06T07:11:37;2.10;;;1.63;;
76935;SDS011;65881;52.438;16.744;2023-08-06T07:14:10;2.67;;;1.83;;
76935;SDS011;65881;52.438;16.744;2023-08-06T07:16:35;2.65;;;1.63;;
76935;SDS011;65881;52.438;16.744;2023-08-06T07:19:16;2.67;;;1.60;;
76935;SDS011;65881;52.438;16.744;2023-08-06T07:21:48;1.48;;;1.38;;
76935;SDS011;65881;52.438;16.744;2023-08-06T07:24:16;2.63;;;1.70;;
76935;SDS011;65881;52.438;16.744;2023-08-06T07:27:12;2.20;;;1.58;;
76935;SDS011;65881;52.438;16.744;2023-08-06T07:29:41;1.73;;;1.42;;
76935;SDS011;65881;52.438;16.744;2023-08-06T07:32:10;2.28;;;1.60;;
76935;SDS011;65881;52.438;16.744;2023-08-06T07:34:35;2.42;;;1.60;;
76935;SDS011;65881;52.438;16.744;2023-08-06T07:37:04;2.90;;;1.52;;
76935;SDS011;65881;52.438;16.744;2023-08-06T07:39:49;1.63;;;1.40;;
76935;SDS011;65881;52.438;16.744;2023-08-06T07:42:15;2.70;;;1.40;;
76935;SDS011;65881;52.438;16.744;2023-08-06T07:44:40;2.15;;;1.55;;
76935;SDS011;65881;52.438;16.744;2023-08-06T07:47:06;1.80;;;1.42;;
76935;SDS011;65881;52.438;16.744;2023-08-06T07:49:32;1.92;;;1.40;;
76935;SDS011;65881;52.438;16.744;2023-08-06T07:51:58;4.25;;;1.88;;
76935;SDS011;65881;52.438;16.744;2023-08-06T07:54:24;1.65;;;1.30;;
76935;SDS011;65881;52.438;16.744;2023-08-06T07:56:50;1.70;;;1.30;;
76935;SDS011;65881;52.438;16.744;2023-08-06T07:59:31;2.40;;;1.52;;
76935;SDS011;65881;52.438;16.744;2023-08-06T08:01:57;2.15;;;1.48;;
76935;SDS011;65881;52.438;16.744;2023-08-06T08:04:23;2.50;;;1.60;;
76935;SDS011;65881;52.438;16.744;2023-08-06T08:07:01;2.17;;;1.30;;
76935;SDS011;65881;52.438;16.744;2023-08-06T08:09:34;2.20;;;1.30;;
76935;SDS011;65881;52.438;16.744;2023-08-06T08:12:09;1.38;;;1.20;;
76935;SDS011;65881;52.438;16.744;2023-08-06T08:14:35;4.18;;;1.60;;
76935;SDS011;65881;52.438;16.744;2023-08-06T08:17:02;3.75;;;1.52;;
76935;SDS011;65881;52.438;16.744;2023-08-06T08:19:29;2.00;;;1.30;;
76935;SDS011;65881;52.438;16.744;2023-08-06T08:21:55;1.40;;;0.95;;
76935;SDS011;65881;52.438;16.744;2023-08-06T08:24:21;1.10;;;1.00;;
76935;SDS011;65881;52.438;16.744;2023-08-06T08:26:49;1.63;;;1.20;;
76935;SDS011;65881;52.438;16.744;2023-08-06T08:29:15;1.52;;;1.30;;
76935;SDS011;65881;52.438;16.744;2023-08-06T08:31:41;1.17;;;1.02;;
76935;SDS011;65881;52.438;16.744;2023-08-06T08:34:06;1.67;;;1.20;;
76935;SDS011;65881;52.438;16.744;2023-08-06T08:36:32;4.05;;;1.15;;
76935;SDS011;65881;52.438;16.744;2023-08-06T08:38:58;2.75;;;1.08;;
76935;SDS011;65881;52.438;16.744;2023-08-06T08:41:24;1.52;;;1.00;;
76935;SDS011;65881;52.438;16.744;2023-08-06T08:43:52;3.28;;;1.27;;
76935;SDS011;65881;52.438;16.744;2023-08-06T08:46:19;4.07;;;1.00;;
76935;SDS011;65881;52.438;16.744;2023-08-06T08:48:45;3.22;;;1.25;;
76935;SDS011;65881;52.438;16.744;2023-08-06T08:51:23;2.05;;;0.98;;
76935;SDS011;65881;52.438;16.744;2023-08-06T08:53:50;0.95;;;0.85;;
76935;SDS011;65881;52.438;16.744;2023-08-06T08:56:21;2.22;;;0.88;;
76935;SDS011;65881;52.438;16.744;2023-08-06T08:58:48;0.93;;;0.80;;
76935;SDS011;65881;52.438;16.744;2023-08-06T09:01:18;0.93;;;0.80;;
76935;SDS011;65881;52.438;16.744;2023-08-06T09:03:45;2.95;;;1.13;;
76935;SDS011;65881;52.438;16.744;2023-08-06T09:06:12;1.73;;;0.90;;
76935;SDS011;65881;52.438;16.744;2023-08-06T09:08:50;2.17;;;1.10;;
76935;SDS011;65881;52.438;16.744;2023-08-06T09:11:21;2.20;;;0.90;;
76935;SDS011;65881;52.438;16.744;2023-08-06T09:13:47;1.10;;;1.00;;
76935;SDS011;65881;52.438;16.744;2023-08-06T09:16:13;2.17;;;1.27;;
76935;SDS011;65881;52.438;16.744;2023-08-06T09:18:39;1.10;;;0.90;;
76935;SDS011;65881;52.438;16.744;2023-08-06T09:21:05;0.88;;;0.73;;
76935;SDS011;65881;52.438;16.744;2023-08-06T09:23:31;1.17;;;1.05;;
76935;SDS011;65881;52.438;16.744;2023-08-06T09:25:58;1.98;;;0.90;;
76935;SDS011;65881;52.438;16.744;2023-08-06T09:28:34;1.27;;;1.17;;
76935;SDS011;65881;52.438;16.744;2023-08-06T09:31:03;1.27;;;0.82;;
76935;SDS011;65881;52.438;16.744;2023-08-06T09:33:29;1.42;;;1.10;;
76935;SDS011;65881;52.438;16.744;2023-08-06T09:35:54;1.30;;;1.20;;
76935;SDS011;65881;52.438;16.744;2023-08-06T09:38:20;1.42;;;1.33;;
76935;SDS011;65881;52.438;16.744;2023-08-06T09:40:46;1.60;;;0.85;;
76935;SDS011;65881;52.438;16.744;2023-08-06T09:43:12;1.80;;;1.10;;
76935;SDS011;65881;52.438;16.744;2023-08-06T09:45:39;1.20;;;0.95;;
76935;SDS011;65881;52.438;16.744;2023-08-06T09:48:05;2.05;;;1.85;;
76935;SDS011;65881;52.438;16.744;2023-08-06T09:50:33;1.77;;;1.23;;
76935;SDS011;65881;52.438;16.744;2023-08-06T09:53:04;1.27;;;0.82;;
76935;SDS011;65881;52.438;16.744;2023-08-06T09:55:31;1.38;;;1.10;;
76935;SDS011;65881;52.438;16.744;2023-08-06T09:57:58;2.25;;;1.42;;
76935;SDS011;65881;52.438;16.744;2023-08-06T10:00:24;2.47;;;1.10;;
76935;SDS011;65881;52.438;16.744;2023-08-06T10:02:51;3.55;;;1.00;;
76935;SDS011;65881;52.438;16.744;2023-08-06T10:05:19;1.13;;;0.80;;
76935;SDS011;65881;52.438;16.744;2023-08-06T10:07:51;1.25;;;0.85;;
76935;SDS011;65881;52.438;16.744;2023-08-06T10:10:25;2.22;;;1.45;;
76935;SDS011;65881;52.438;16.744;2023-08-06T10:12:52;7.95;;;1.40;;
76935;SDS011;65881;52.438;16.744;2023-08-06T10:15:31;1.20;;;0.90;;
76935;SDS011;65881;52.438;16.744;2023-08-06T10:17:58;0.82;;;0.80;;
76935;SDS011;65881;52.438;16.744;2023-08-06T10:20:26;0.98;;;0.98;;
76935;SDS011;65881;52.438;16.744;2023-08-06T10:23:01;1.60;;;1.00;;
76935;SDS011;65881;52.438;16.744;2023-08-06T10:25:31;1.65;;;1.00;;
76935;SDS011;65881;52.438;16.744;2023-08-06T10:28:07;1.50;;;1.10;;
76935;SDS011;65881;52.438;16.744;2023-08-06T10:30:46;1.60;;;0.90;;
76935;SDS011;65881;52.438;16.744;2023-08-06T10:33:15;2.05;;;0.98;;
76935;SDS011;65881;52.438;16.744;2023-08-06T10:35:47;1.45;;;1.08;;
76935;SDS011;65881;52.438;16.744;2023-08-06T10:46:04;2.50;;;0.82;;
76935;SDS011;65881;52.438;16.744;2023-08-06T10:48:35;4.85;;;2.53;;
76935;SDS011;65881;52.438;16.744;2023-08-06T10:51:03;0.77;;;0.77;;
76935;SDS011;65881;52.438;16.744;2023-08-06T10:53:32;2.50;;;0.73;;
76935;SDS011;65881;52.438;16.744;2023-08-06T10:55:58;0.68;;;0.60;;
76935;SDS011;65881;52.438;16.744;2023-08-06T10:58:25;1.42;;;0.70;;
76935;SDS011;65881;52.438;16.744;2023-08-06T11:00:51;1.85;;;1.38;;
76935;SDS011;65881;52.438;16.744;2023-08-06T11:03:17;4.50;;;1.52;;
76935;SDS011;65881;52.438;16.744;2023-08-06T11:05:48;1.85;;;1.73;;
76935;SDS011;65881;52.438;16.744;2023-08-06T11:08:24;1.92;;;1.00;;
76935;SDS011;65881;52.438;16.744;2023-08-06T11:10:54;2.10;;;1.40;;
76935;SDS011;65881;52.438;16.744;2023-08-06T11:13:20;0.75;;;0.70;;
76935;SDS011;65881;52.438;16.744;2023-08-06T11:15:46;0.88;;;0.77;;
76935;SDS011;65881;52.438;16.744;2023-08-06T11:18:12;0.65;;;0.65;;
76935;SDS011;65881;52.438;16.744;2023-08-06T11:20:38;1.85;;;0.90;;
76935;SDS011;65881;52.438;16.744;2023-08-06T11:23:04;1.02;;;0.93;;
76935;SDS011;65881;52.438;16.744;2023-08-06T11:25:30;1.63;;;1.05;;
76935;SDS011;65881;52.438;16.744;2023-08-06T11:28:01;2.65;;;1.10;;
76935;SDS011;65881;52.438;16.744;2023-08-06T11:30:26;2.08;;;1.23;;
76935;SDS011;65881;52.438;16.744;2023-08-06T11:32:52;2.95;;;1.80;;
76935;SDS011;65881;52.438;16.744;2023-08-06T11:35:21;1.10;;;0.90;;
76935;SDS011;65881;52.438;16.744;2023-08-06T11:37:50;2.47;;;1.58;;
76935;SDS011;65881;52.438;16.744;2023-08-06T11:40:15;1.98;;;1.30;;
76935;SDS011;65881;52.438;16.744;2023-08-06T11:42:42;1.45;;;1.10;;
76935;SDS011;65881;52.438;16.744;2023-08-06T11:45:08;0.75;;;0.75;;
76935;SDS011;65881;52.438;16.744;2023-08-06T11:47:39;1.48;;;1.20;;
76935;SDS011;65881;52.438;16.744;2023-08-06T11:50:07;1.83;;;0.88;;
76935;SDS011;65881;52.438;16.744;2023-08-06T11:52:33;1.05;;;0.68;;
76935;SDS011;65881;52.438;16.744;2023-08-06T11:55:08;0.80;;;0.75;;
76935;SDS011;65881;52.438;16.744;2023-08-06T11:57:54;1.27;;;0.85;;
76935;SDS011;65881;52.438;16.744;2023-08-06T12:00:22;0.68;;;0.68;;
76935;SDS011;65881;52.438;16.744;2023-08-06T12:02:49;1.50;;;1.00;;
76935;SDS011;65881;52.438;16.744;2023-08-06T12:05:20;1.58;;;1.15;;
76935;SDS011;65881;52.438;16.744;2023-08-06T12:07:55;1.77;;;1.05;;
76935;SDS011;65881;52.438;16.744;2023-08-06T12:10:22;1.88;;;1.50;;
76935;SDS011;65881;52.438;16.744;2023-08-06T12:12:49;1.02;;;0.75;;
76935;SDS011;65881;52.438;16.744;2023-08-06T12:15:15;1.30;;;1.02;;
76935;SDS011;65881;52.438;16.744;2023-08-06T12:17:41;2.80;;;1.23;;
76935;SDS011;65881;52.438;16.744;2023-08-06T12:20:07;1.35;;;0.93;;
76935;SDS011;65881;52.438;16.744;2023-08-06T12:22:34;1.45;;;1.10;;
76935;SDS011;65881;52.438;16.744;2023-08-06T12:25:01;1.13;;;1.02;;
76935;SDS011;65881;52.438;16.744;2023-08-06T12:27:35;1.73;;;1.02;;
76935;SDS011;65881;52.438;16.744;2023-08-06T12:30:01;1.55;;;1.02;;
76935;SDS011;65881;52.438;16.744;2023-08-06T12:32:28;3.28;;;1.30;;
76935;SDS011;65881;52.438;16.744;2023-08-06T12:34:55;4.18;;;1.23;;
76935;SDS011;65881;52.438;16.744;2023-08-06T12:37:20;1.67;;;1.17;;
76935;SDS011;65881;52.438;16.744;2023-08-06T12:39:46;1.08;;;0.90;;
76935;SDS011;65881;52.438;16.744;2023-08-06T12:42:24;1.48;;;1.10;;
76935;SDS011;65881;52.438;16.744;2023-08-06T12:44:56;1.88;;;0.90;;
76935;SDS011;65881;52.438;16.744;2023-08-06T12:47:22;2.47;;;1.08;;
76935;SDS011;65881;52.438;16.744;2023-08-06T12:49:47;0.60;;;0.60;;
76935;SDS011;65881;52.438;16.744;2023-08-06T12:52:31;1.95;;;0.93;;
76935;SDS011;65881;52.438;16.744;2023-08-06T12:54:57;0.63;;;0.60;;
76935;SDS011;65881;52.438;16.744;2023-08-06T12:57:22;0.85;;;0.65;;
76935;SDS011;65881;52.438;16.744;2023-08-06T12:59:48;1.42;;;0.93;;
76935;SDS011;65881;52.438;16.744;2023-08-06T13:02:14;0.75;;;0.63;;
76935;SDS011;65881;52.438;16.744;2023-08-06T13:04:40;0.60;;;0.60;;
76935;SDS011;65881;52.438;16.744;2023-08-06T13:07:06;0.57;;;0.57;;
76935;SDS011;65881;52.438;16.744;2023-08-06T13:09:32;0.88;;;0.82;;
76935;SDS011;65881;52.438;16.744;2023-08-06T13:12:07;0.95;;;0.82;;
76935;SDS011;65881;52.438;16.744;2023-08-06T13:14:35;0.80;;;0.80;;
76935;SDS011;65881;52.438;16.744;2023-08-06T13:17:13;1.45;;;1.00;;
76935;SDS011;65881;52.438;16.744;2023-08-06T13:19:45;1.20;;;0.82;;
76935;SDS011;65881;52.438;16.744;2023-08-06T13:22:23;1.70;;;0.93;;
76935;SDS011;65881;52.438;16.744;2023-08-06T13:25:04;1.08;;;1.00;;
76935;SDS011;65881;52.438;16.744;2023-08-06T13:27:30;1.02;;;0.88;;
76935;SDS011;65881;52.438;16.744;2023-08-06T13:29:56;3.63;;;1.58;;
76935;SDS011;65881;52.438;16.744;2023-08-06T13:32:47;0.73;;;0.73;;
76935;SDS011;65881;52.438;16.744;2023-08-06T13:35:21;1.00;;;0.77;;
76935;SDS011;65881;52.438;16.744;2023-08-06T13:38:00;2.65;;;1.33;;
76935;SDS011;65881;52.438;16.744;2023-08-06T13:40:28;1.55;;;1.05;;
76935;SDS011;65881;52.438;16.744;2023-08-06T13:43:02;1.08;;;0.85;;
76935;SDS011;65881;52.438;16.744;2023-08-06T13:45:28;1.42;;;0.90;;
76935;SDS011;65881;52.438;16.744;2023-08-06T13:48:09;0.80;;;0.80;;
76935;SDS011;65881;52.438;16.744;2023-08-06T13:50:46;0.90;;;0.90;;
76935;SDS011;65881;52.438;16.744;2023-08-06T13:53:12;1.23;;;1.13;;
76935;SDS011;65881;52.438;16.744;2023-08-06T13:55:44;1.13;;;1.00;;
76935;SDS011;65881;52.438;16.744;2023-08-06T13:58:12;2.35;;;1.20;;
76935;SDS011;65881;52.438;16.744;2023-08-06T14:03:19;1.25;;;1.00;;
76935;SDS011;65881;52.438;16.744;2023-08-06T14:05:45;1.02;;;0.88;;
76935;SDS011;65881;52.438;16.744;2023-08-06T14:08:11;1.02;;;0.93;;
76935;SDS011;65881;52.438;16.744;2023-08-06T14:10:45;0.95;;;0.80;;
76935;SDS011;65881;52.438;16.744;2023-08-06T14:13:14;1.10;;;0.75;;
76935;SDS011;65881;52.438;16.744;2023-08-06T14:15:55;1.23;;;1.02;;
76935;SDS011;65881;52.438;16.744;2023-08-06T14:22:01;1.38;;;0.73;;
76935;SDS011;65881;52.438;16.744;2023-08-06T14:24:30;2.50;;;1.00;;
76935;SDS011;65881;52.438;16.744;2023-08-06T14:26:56;0.68;;;0.68;;
76935;SDS011;65881;52.438;16.744;2023-08-06T14:29:30;0.85;;;0.73;;
76935;SDS011;65881;52.438;16.744;2023-08-06T14:32:08;0.73;;;0.73;;
76935;SDS011;65881;52.438;16.744;2023-08-06T14:34:33;1.50;;;0.93;;
76935;SDS011;65881;52.438;16.744;2023-08-06T14:37:00;0.98;;;0.70;;
76935;SDS011;65881;52.438;16.744;2023-08-06T14:39:25;3.50;;;1.10;;
76935;SDS011;65881;52.438;16.744;2023-08-06T14:41:51;1.13;;;1.00;;
76935;SDS011;65881;52.438;16.744;2023-08-06T14:44:22;1.10;;;0.93;;
76935;SDS011;65881;52.438;16.744;2023-08-06T14:47:00;0.82;;;0.77;;
76935;SDS011;65881;52.438;16.744;2023-08-06T14:49:31;0.82;;;0.82;;
76935;SDS011;65881;52.438;16.744;2023-08-06T14:54:55;1.48;;;1.33;;
76935;SDS011;65881;52.438;16.744;2023-08-06T14:59:56;1.00;;;1.00;;
76935;SDS011;65881;52.438;16.744;2023-08-06T15:02:22;1.65;;;1.33;;
76935;SDS011;65881;52.438;16.744;2023-08-06T15:04:48;1.33;;;1.23;;
76935;SDS011;65881;52.438;16.744;2023-08-06T15:07:16;1.85;;;1.30;;
76935;SDS011;65881;52.438;16.744;2023-08-06T15:10:02;2.05;;;1.58;;
76935;SDS011;65881;52.438;16.744;2023-08-06T15:12:32;1.40;;;1.08;;
76935;SDS011;65881;52.438;16.744;2023-08-06T15:15:13;1.05;;;1.00;;
76935;SDS011;65881;52.438;16.744;2023-08-06T15:17:40;1.33;;;1.23;;
76935;SDS011;65881;52.438;16.744;2023-08-06T15:20:08;2.15;;;1.10;;
76935;SDS011;65881;52.438;16.744;2023-08-06T15:22:34;2.05;;;1.40;;
76935;SDS011;65881;52.438;16.744;2023-08-06T15:25:00;2.95;;;1.30;;
76935;SDS011;65881;52.438;16.744;2023-08-06T15:27:26;1.58;;;1.20;;
76935;SDS011;65881;52.438;16.744;2023-08-06T15:29:52;2.10;;;1.20;;
76935;SDS011;65881;52.438;16.744;2023-08-06T15:32:18;1.50;;;1.30;;